createdAt,value
2022-09-28T00:01:37.177Z,39.30
2022-09-28T00:04:46.137Z,45.33
2022-09-28T00:08:02.499Z,40.75
2022-09-28T00:11:16.861Z,41.13
2022-09-28T00:14:26.697Z,44.50
2022-09-28T00:17:32.552Z,50.72
2022-09-28T00:20:39.010Z,48.58
2022-09-28T00:24:02.353Z,52.83
2022-09-28T00:27:07.086Z,49.63
2022-09-28T00:30:11.153Z,46.30
2022-09-28T00:33:15.299Z,41.67
2022-09-28T00:36:19.161Z,48.42
2022-09-28T00:39:23.377Z,41.20
2022-09-28T00:42:28.256Z,46.78
2022-09-28T00:45:33.767Z,47.08
2022-09-28T00:49:05.412Z,41.50
2022-09-28T00:52:27.926Z,45.65
2022-09-28T00:56:08.326Z,48.53
2022-09-28T00:59:12.161Z,44.20
2022-09-28T01:02:18.165Z,53.17
2022-09-28T01:05:23.812Z,54.55
2022-09-28T01:08:29.048Z,49.47
2022-09-28T01:11:34.890Z,47.00
2022-09-28T01:14:41.622Z,47.17
2022-09-28T01:18:13.655Z,39.67
2022-09-28T01:21:25.907Z,52.67
2022-09-28T01:24:31.030Z,48.22
2022-09-28T01:27:48.337Z,47.35
2022-09-28T01:31:15.494Z,40.30
2022-09-28T01:34:35.375Z,39.00
2022-09-28T01:37:41.328Z,42.63
2022-09-28T01:40:46.916Z,33.17
2022-09-28T01:43:57.394Z,36.53
2022-09-28T01:47:05.019Z,29.27
2022-09-28T01:50:20.795Z,33.88
2022-09-28T01:53:29.745Z,32.05
2022-09-28T01:56:46.678Z,28.88
2022-09-28T02:00:11.414Z,36.00
2022-09-28T02:03:35.777Z,39.80
2022-09-28T02:06:49.926Z,38.30
2022-09-28T02:09:59.527Z,42.38
2022-09-28T02:13:08.076Z,31.50
2022-09-28T02:16:17.992Z,36.80
2022-09-28T02:19:28.053Z,23.90
2022-09-28T02:22:44.044Z,25.25
2022-09-28T02:25:54.777Z,27.40
2022-09-28T02:28:58.656Z,25.17
2022-09-28T02:32:01.850Z,31.42
2022-09-28T02:35:05.866Z,21.13
2022-09-28T02:38:12.448Z,29.15
2022-09-28T02:41:22.236Z,29.90
2022-09-28T02:44:51.918Z,18.48
2022-09-28T02:48:36.132Z,19.17
2022-09-28T02:52:05.339Z,22.73
2022-09-28T02:55:18.780Z,16.00
2022-09-28T02:59:01.007Z,14.35
2022-09-28T03:02:32.716Z,17.45
2022-09-28T03:05:53.777Z,16.30
2022-09-28T03:09:28.137Z,19.77
2022-09-28T03:12:34.014Z,20.58
2022-09-28T03:15:39.931Z,15.15
2022-09-28T03:18:44.860Z,18.10
2022-09-28T03:21:49.579Z,12.57
2022-09-28T03:24:58.449Z,23.45
2022-09-28T03:28:04.896Z,16.35
2022-09-28T03:31:14.056Z,18.50
2022-09-28T03:34:20.731Z,17.67
2022-09-28T03:37:24.672Z,20.70
2022-09-28T03:40:28.147Z,20.77
2022-09-28T03:43:32.180Z,15.43
2022-09-28T03:46:41.291Z,13.30
2022-09-28T03:49:46.357Z,13.15
2022-09-28T03:52:50.912Z,13.23
2022-09-28T03:55:54.786Z,13.68
2022-09-28T03:58:58.307Z,6.25
2022-09-28T04:02:02.603Z,9.40
2022-09-28T04:05:07.510Z,5.75
2022-09-28T04:08:11.000Z,3.85
2022-09-28T04:11:16.220Z,2.00
2022-09-28T04:14:19.742Z,7.63
2022-09-28T04:17:23.986Z,4.68
2022-09-28T04:20:27.448Z,2.53
2022-09-28T04:23:40.999Z,3.40
2022-09-28T04:26:44.743Z,1.27
2022-09-28T04:29:48.921Z,1.85
2022-09-28T04:32:54.984Z,2.78
2022-09-28T04:36:05.715Z,2.38
2022-09-28T04:39:09.377Z,1.00
2022-09-28T04:42:18.553Z,1.08
2022-09-28T04:45:29.326Z,3.67
2022-09-28T04:48:39.419Z,3.42
2022-09-28T04:52:06.746Z,4.65
2022-09-28T04:55:15.062Z,2.42
2022-09-28T04:58:20.524Z,1.25
2022-09-28T05:01:24.713Z,1.67
2022-09-28T05:04:31.774Z,0.60
2022-09-28T05:08:04.272Z,1.20
2022-09-28T05:11:16.486Z,1.85
2022-09-28T05:14:23.509Z,1.35
2022-09-28T05:17:27.712Z,1.52
2022-09-28T05:20:54.756Z,0.80
2022-09-28T05:23:59.290Z,4.20
2022-09-28T05:27:02.756Z,1.75
2022-09-28T05:30:07.820Z,1.58
2022-09-28T05:33:41.357Z,5.47
2022-09-28T05:36:49.737Z,2.80
2022-09-28T05:39:54.355Z,0.98
2022-09-28T05:43:01.965Z,2.92
2022-09-28T05:46:06.710Z,1.27
2022-09-28T05:49:14.279Z,1.63
2022-09-28T05:52:17.702Z,1.60
2022-09-28T05:55:24.040Z,0.57
2022-09-28T05:58:29.251Z,3.08
2022-09-28T06:01:35.597Z,1.05
2022-09-28T06:04:40.526Z,1.13
2022-09-28T06:07:44.497Z,2.90
2022-09-28T06:10:48.525Z,0.85
2022-09-28T06:13:56.081Z,2.95
2022-09-28T06:17:00.203Z,3.50
2022-09-28T06:20:03.702Z,0.85
2022-09-28T06:23:25.570Z,1.17
2022-09-28T06:26:32.204Z,0.85
2022-09-28T06:29:37.463Z,2.35
2022-09-28T06:32:42.831Z,1.85
2022-09-28T06:35:47.798Z,1.25
2022-09-28T06:38:53.516Z,1.45
2022-09-28T06:41:57.978Z,1.75
2022-09-28T06:45:16.394Z,1.13
2022-09-28T06:48:45.560Z,1.35
2022-09-28T06:51:55.124Z,1.33
2022-09-28T06:55:13.238Z,0.60
2022-09-28T06:58:22.597Z,1.55
2022-09-28T07:01:28.011Z,1.05
2022-09-28T07:04:45.483Z,1.75
2022-09-28T07:07:50.320Z,2.25
2022-09-28T07:11:17.246Z,1.95
2022-09-28T07:14:44.621Z,1.17
2022-09-28T07:18:03.471Z,2.35
2022-09-28T07:21:16.001Z,1.65
2022-09-28T07:24:26.363Z,2.65
2022-09-28T07:27:58.294Z,5.65
2022-09-28T07:31:29.282Z,2.92
2022-09-28T07:34:58.802Z,2.90
2022-09-28T07:38:22.726Z,3.28
2022-09-28T07:41:34.056Z,1.75
2022-09-28T07:44:43.698Z,1.23
2022-09-28T07:47:49.248Z,2.35
2022-09-28T07:51:13.037Z,1.50
2022-09-28T07:54:22.065Z,1.38
2022-09-28T07:58:02.013Z,1.05
2022-09-28T08:01:23.070Z,1.90
2022-09-28T08:04:29.606Z,3.80
2022-09-28T08:07:35.993Z,2.43
2022-09-28T08:10:47.131Z,2.38
2022-09-28T08:13:58.872Z,1.70
2022-09-28T08:17:21.578Z,3.60
2022-09-28T08:20:51.656Z,2.22
2022-09-28T08:23:56.571Z,1.05
2022-09-28T08:27:01.155Z,1.85
2022-09-28T08:33:28.943Z,5.07
2022-09-28T08:36:53.693Z,0.90
2022-09-28T08:40:27.231Z,3.00
2022-09-28T08:44:15.701Z,1.98
2022-09-28T08:48:22.033Z,1.17
2022-09-28T08:51:50.302Z,2.00
2022-09-28T08:55:33.123Z,2.17
2022-09-28T08:58:45.557Z,2.63
2022-09-28T09:01:58.950Z,0.57
2022-09-28T09:05:14.952Z,3.00
2022-09-28T09:09:02.399Z,1.00
2022-09-28T09:12:26.801Z,1.75
2022-09-28T09:16:46.731Z,1.05
2022-09-28T09:20:36.172Z,0.98
2022-09-28T09:23:58.508Z,2.22
2022-09-28T09:27:30.346Z,0.63
2022-09-28T09:30:51.457Z,5.28
2022-09-28T09:34:41.357Z,0.90
2022-09-28T09:38:42.918Z,2.38
2022-09-28T09:42:37.557Z,1.63
2022-09-28T09:46:44.233Z,1.27
2022-09-28T09:50:31.252Z,1.60
2022-09-28T09:53:55.350Z,1.77
2022-09-28T09:57:11.995Z,2.67
2022-09-28T10:00:42.796Z,1.15
2022-09-28T10:04:00.834Z,1.23
2022-09-28T10:07:11.923Z,0.90
2022-09-28T10:10:37.745Z,0.88
2022-09-28T10:13:46.675Z,0.73
2022-09-28T10:17:19.056Z,2.10
2022-09-28T10:20:48.369Z,1.00
2022-09-28T10:24:22.101Z,2.05
2022-09-28T10:27:28.213Z,0.70
2022-09-28T10:30:35.983Z,1.20
2022-09-28T10:33:40.376Z,1.23
2022-09-28T10:36:49.171Z,2.60
2022-09-28T10:39:56.971Z,0.75
2022-09-28T10:43:06.168Z,1.30
2022-09-28T10:46:24.505Z,2.15
2022-09-28T10:49:46.606Z,1.85
2022-09-28T10:52:54.756Z,2.88
2022-09-28T10:56:30.794Z,0.55
2022-09-28T10:59:42.786Z,3.92
2022-09-28T11:03:05.969Z,1.27
2022-09-28T11:06:10.819Z,0.85
2022-09-28T11:09:29.740Z,0.87
2022-09-28T11:12:46.478Z,5.60
2022-09-28T11:15:50.856Z,4.93
2022-09-28T11:19:30.747Z,0.60
2022-09-28T11:22:34.330Z,0.80
2022-09-28T11:25:43.552Z,5.60
2022-09-28T11:28:59.550Z,1.08
2022-09-28T11:32:16.219Z,0.80
2022-09-28T11:36:26.623Z,1.40
2022-09-28T11:39:43.769Z,2.50
2022-09-28T11:47:26.906Z,1.20
2022-09-28T11:50:48.955Z,3.20
2022-09-28T11:53:56.136Z,2.15
2022-09-28T11:57:07.191Z,1.50
2022-09-28T12:00:25.298Z,2.08
2022-09-28T12:03:40.618Z,3.70
2022-09-28T12:07:00.179Z,3.42
2022-09-28T12:10:34.162Z,2.95
2022-09-28T12:17:43.268Z,1.35
2022-09-28T12:21:04.987Z,1.63
2022-09-28T12:24:34.579Z,10.93
2022-09-28T12:27:58.828Z,1.58
2022-09-28T12:31:31.202Z,2.58
2022-09-28T12:34:35.000Z,2.85
2022-09-28T12:37:54.503Z,4.65
2022-09-28T12:41:20.007Z,0.93
2022-09-28T12:58:44.362Z,4.88
2022-09-28T13:02:37.585Z,4.78
2022-09-28T13:06:18.598Z,3.75
2022-09-28T13:09:28.743Z,3.47
2022-09-28T13:12:48.489Z,3.70
2022-09-28T13:16:02.104Z,7.65
2022-09-28T13:19:16.519Z,2.40
2022-09-28T13:22:43.488Z,5.53
2022-09-28T13:25:56.885Z,3.72
2022-09-28T13:29:13.219Z,3.72
2022-09-28T13:32:22.353Z,3.60
2022-09-28T13:35:26.513Z,3.53
2022-09-28T13:38:32.477Z,5.43
2022-09-28T13:41:38.982Z,1.65
2022-09-28T13:45:06.869Z,2.80
2022-09-28T13:48:47.991Z,2.83
2022-09-28T13:59:30.597Z,9.40
2022-09-28T14:02:46.422Z,11.75
2022-09-28T14:06:07.268Z,11.35
2022-09-28T14:09:24.246Z,9.05
2022-09-28T14:12:36.994Z,10.35
2022-09-28T14:15:44.755Z,14.90
2022-09-28T14:19:18.153Z,16.45
2022-09-28T14:22:34.273Z,16.88
2022-09-28T14:25:48.811Z,13.32
2022-09-28T14:29:17.198Z,8.63
2022-09-28T14:32:27.988Z,15.27
2022-09-28T14:35:42.206Z,14.60
2022-09-28T14:39:07.863Z,18.13
2022-09-28T14:42:17.858Z,14.85
2022-09-28T14:45:36.486Z,16.17
2022-09-28T14:48:55.245Z,15.45
2022-09-28T14:52:03.872Z,21.13
2022-09-28T14:55:20.593Z,16.98
2022-09-28T15:02:17.150Z,24.80
2022-09-28T15:05:29.027Z,16.10
2022-09-28T15:08:56.199Z,21.90
2022-09-28T15:12:15.792Z,25.40
2022-09-28T15:15:50.482Z,16.90
2022-09-28T15:19:03.869Z,10.88
2022-09-28T15:22:17.264Z,16.25
2022-09-28T15:25:24.306Z,24.00
2022-09-28T15:28:27.833Z,24.25
2022-09-28T15:31:37.779Z,19.98
2022-09-28T15:34:55.726Z,19.27
2022-09-28T15:38:00.961Z,16.90
2022-09-28T15:41:08.183Z,13.18
2022-09-28T15:47:26.743Z,16.95
2022-09-28T15:50:34.638Z,25.90
2022-09-28T15:54:05.656Z,32.85
2022-09-28T15:57:31.916Z,27.85
2022-09-28T16:00:37.204Z,34.13
2022-09-28T16:03:42.515Z,27.40
2022-09-28T16:07:12.842Z,25.50
2022-09-28T16:10:17.879Z,18.95
2022-09-28T16:13:25.068Z,26.85
2022-09-28T16:16:35.661Z,27.08
2022-09-28T16:19:40.995Z,29.30
2022-09-28T16:22:46.269Z,26.60
2022-09-28T16:25:55.363Z,17.88
2022-09-28T16:29:00.500Z,9.82
2022-09-28T16:32:26.914Z,7.05
2022-09-28T16:35:36.784Z,3.77
2022-09-28T16:38:45.720Z,7.15
2022-09-28T16:41:56.596Z,4.97
2022-09-28T16:45:04.904Z,4.10
2022-09-28T16:48:16.189Z,4.47
2022-09-28T16:51:24.318Z,1.95
2022-09-28T16:54:49.717Z,2.00
2022-09-28T16:57:55.471Z,1.70
2022-09-28T17:01:02.815Z,3.13
2022-09-28T17:04:09.341Z,1.67
2022-09-28T17:07:17.243Z,1.45
2022-09-28T17:11:09.852Z,1.95
2022-09-28T17:14:11.464Z,1.92
2022-09-28T17:17:17.543Z,2.65
2022-09-28T17:20:29.624Z,2.80
2022-09-28T17:23:35.374Z,3.10
2022-09-28T17:26:41.132Z,4.43
2022-09-28T17:29:46.581Z,3.20
2022-09-28T17:32:52.952Z,2.50
2022-09-28T17:36:05.910Z,3.65
2022-09-28T17:39:21.049Z,4.32
2022-09-28T17:42:25.940Z,5.50
2022-09-28T17:45:32.824Z,5.10
2022-09-28T17:48:37.422Z,3.72
2022-09-28T17:51:42.603Z,3.75
2022-09-28T17:54:47.155Z,4.07
2022-09-28T17:57:52.918Z,3.78
2022-09-28T18:00:58.570Z,4.28
2022-09-28T18:04:13.227Z,4.53
2022-09-28T18:07:24.312Z,3.90
2022-09-28T18:10:31.188Z,3.72
2022-09-28T18:13:36.305Z,5.43
2022-09-28T18:16:42.363Z,4.95
2022-09-28T18:19:47.524Z,4.35
2022-09-28T18:22:52.246Z,3.42
2022-09-28T18:25:56.435Z,4.13
2022-09-28T18:29:02.656Z,3.95
2022-09-28T18:32:08.348Z,5.80
2022-09-28T18:35:13.963Z,3.47
2022-09-28T18:38:19.161Z,4.15
2022-09-28T18:41:25.892Z,4.78
2022-09-28T18:44:31.424Z,7.93
2022-09-28T18:47:36.268Z,9.00
2022-09-28T18:50:43.456Z,6.05
2022-09-28T18:56:57.594Z,6.32
2022-09-28T19:00:03.951Z,7.85
2022-09-28T19:03:12.335Z,5.32
2022-09-28T19:06:19.998Z,5.22
2022-09-28T19:09:28.427Z,4.38
2022-09-28T19:15:39.699Z,5.43
2022-09-28T19:18:45.016Z,3.85
2022-09-28T19:21:51.470Z,7.15
2022-09-28T19:24:58.120Z,5.20
2022-09-28T19:28:04.486Z,6.80
2022-09-28T19:31:10.857Z,3.23
2022-09-28T19:34:16.276Z,4.75
2022-09-28T19:37:20.729Z,2.92
2022-09-28T19:40:26.563Z,6.50
2022-09-28T19:43:32.545Z,2.72
2022-09-28T19:46:40.779Z,2.42
2022-09-28T19:49:46.613Z,3.42
2022-09-28T19:52:54.623Z,1.65
2022-09-28T19:59:08.487Z,2.40
2022-09-28T20:02:15.597Z,1.23
2022-09-28T20:05:20.925Z,1.35
2022-09-28T20:08:27.810Z,1.80
2022-09-28T20:11:33.434Z,1.48
2022-09-28T20:14:40.393Z,1.67
2022-09-28T20:17:45.985Z,0.98
2022-09-28T20:21:06.493Z,0.93
2022-09-28T20:24:13.980Z,0.63
2022-09-28T20:27:24.243Z,1.10
2022-09-28T20:30:32.353Z,1.45
2022-09-28T20:33:40.464Z,1.45
2022-09-28T20:36:46.323Z,0.75
2022-09-28T20:39:53.108Z,1.25
2022-09-28T20:42:58.959Z,1.50
2022-09-28T20:46:06.714Z,1.77
2022-09-28T20:52:18.680Z,0.98
2022-09-28T20:55:25.770Z,1.77
2022-09-28T20:58:33.427Z,0.43
2022-09-28T21:01:41.320Z,0.80
2022-09-28T21:04:48.972Z,0.73
2022-09-28T21:07:55.548Z,0.65
2022-09-28T21:11:03.455Z,0.88
2022-09-28T21:17:18.336Z,1.30
2022-09-28T21:20:25.530Z,0.55
2022-09-28T21:23:34.866Z,0.40
2022-09-28T21:26:43.080Z,0.50
2022-09-28T21:29:51.908Z,0.40
2022-09-28T21:32:58.496Z,0.35
2022-09-28T21:36:08.540Z,0.63
2022-09-28T21:39:19.416Z,1.88
2022-09-28T21:42:28.135Z,0.90
2022-09-28T21:45:35.432Z,1.83
2022-09-28T21:48:42.418Z,0.73
2022-09-28T21:51:50.931Z,0.88
2022-09-28T21:55:00.789Z,1.42
2022-09-28T21:58:08.600Z,1.35
2022-09-28T22:01:19.473Z,0.90
2022-09-28T22:04:27.672Z,1.63
2022-09-28T22:07:37.730Z,0.93
2022-09-28T22:10:46.863Z,0.73
2022-09-28T22:13:58.156Z,1.58
2022-09-28T22:17:06.357Z,0.65
2022-09-28T22:20:15.005Z,2.08
2022-09-28T22:23:25.753Z,1.05
2022-09-28T22:26:34.993Z,0.52
2022-09-28T22:29:44.332Z,0.50
2022-09-28T22:32:53.975Z,0.40
2022-09-28T22:36:03.157Z,0.73
2022-09-28T22:39:07.839Z,1.48
2022-09-28T22:42:11.543Z,1.95
2022-09-28T22:45:15.412Z,0.73
2022-09-28T22:48:19.591Z,0.73
2022-09-28T22:56:32.720Z,1.23
2022-09-28T22:59:39.251Z,2.17
2022-09-28T23:02:42.925Z,0.65
2022-09-28T23:05:56.586Z,1.63
2022-09-28T23:09:00.517Z,1.55
2022-09-28T23:12:04.891Z,0.68
2022-09-28T23:15:11.670Z,0.70
2022-09-28T23:18:19.184Z,1.60
2022-09-28T23:21:29.840Z,0.95
2022-09-28T23:24:39.383Z,3.53
2022-09-28T23:27:51.895Z,1.00
2022-09-28T23:31:10.610Z,0.93
2022-09-28T23:34:19.582Z,0.43
2022-09-28T23:37:28.822Z,1.75
2022-09-28T23:40:37.178Z,1.73
2022-09-28T23:43:45.763Z,6.70
2022-09-28T23:46:55.356Z,2.58
2022-09-28T23:50:05.073Z,1.02
2022-09-28T23:53:16.643Z,2.13
2022-09-28T23:56:26.290Z,3.55
2022-09-28T23:59:37.780Z,3.22
